createdAt,value
2017-06-02T00:02:25.198Z,56.00
2017-06-02T00:04:53.913Z,56.60
2017-06-02T00:07:22.298Z,56.40
2017-06-02T00:09:50.682Z,55.50
2017-06-02T00:12:19.055Z,55.70
2017-06-02T00:14:47.504Z,56.40
2017-06-02T00:17:15.849Z,56.40
2017-06-02T00:19:44.203Z,56.70
2017-06-02T00:22:12.542Z,56.60
2017-06-02T00:24:40.357Z,56.70
2017-06-02T00:27:08.712Z,56.60
2017-06-02T00:29:36.307Z,56.70
2017-06-02T00:32:04.650Z,56.70
2017-06-02T00:34:33.013Z,56.50
2017-06-02T00:37:01.353Z,56.80
2017-06-02T00:39:29.700Z,57.00
2017-06-02T00:41:58.070Z,57.10
2017-06-02T00:44:25.649Z,57.10
2017-06-02T00:46:54.016Z,57.20
2017-06-02T00:49:22.358Z,58.10
2017-06-02T00:51:50.725Z,58.00
2017-06-02T00:54:19.078Z,58.10
2017-06-02T00:56:46.690Z,58.10
2017-06-02T00:59:15.030Z,57.60
2017-06-02T01:01:43.396Z,57.00
2017-06-02T01:04:11.727Z,57.60
2017-06-02T01:06:40.077Z,57.60
2017-06-02T01:09:08.416Z,58.30
2017-06-02T01:11:36.771Z,58.00
2017-06-02T01:14:05.140Z,57.80
2017-06-02T01:16:33.489Z,57.60
2017-06-02T01:19:01.823Z,58.10
2017-06-02T01:21:30.179Z,58.60
2017-06-02T01:23:58.588Z,58.90
2017-06-02T01:26:26.934Z,58.80
2017-06-02T01:28:55.283Z,58.30
2017-06-02T01:31:23.659Z,58.40
2017-06-02T01:33:52.007Z,57.90
2017-06-02T01:36:20.351Z,57.80
2017-06-02T01:38:48.704Z,58.00
2017-06-02T01:41:17.040Z,58.10
2017-06-02T01:43:45.383Z,58.00
2017-06-02T01:46:13.740Z,57.60
2017-06-02T01:48:42.095Z,57.20
2017-06-02T01:51:10.423Z,57.80
2017-06-02T01:53:38.776Z,58.40
2017-06-02T01:56:06.348Z,58.40
2017-06-02T01:58:33.918Z,57.60
2017-06-02T02:01:01.483Z,57.40
2017-06-02T02:03:29.843Z,58.80
2017-06-02T02:05:57.403Z,58.80
2017-06-02T02:08:24.960Z,58.80
2017-06-02T02:10:52.560Z,58.60
2017-06-02T02:13:20.891Z,59.70
2017-06-02T02:15:48.496Z,59.70
2017-06-02T02:18:16.067Z,58.60
2017-06-02T02:20:43.640Z,57.60
2017-06-02T02:23:11.959Z,59.20
2017-06-02T02:25:39.535Z,59.20
2017-06-02T02:28:07.091Z,58.90
2017-06-02T02:30:34.673Z,58.90
2017-06-02T02:33:02.994Z,57.30
2017-06-02T02:35:31.361Z,58.00
2017-06-02T02:37:58.923Z,58.00
2017-06-02T02:40:26.527Z,58.20
2017-06-02T02:42:54.852Z,58.90
2017-06-02T02:45:22.416Z,58.90
2017-06-02T02:47:49.991Z,58.90
2017-06-02T02:50:17.555Z,58.10
2017-06-02T02:52:45.915Z,59.10
2017-06-02T02:55:13.484Z,59.00
2017-06-02T02:57:41.063Z,58.50
2017-06-02T03:00:08.647Z,58.30
2017-06-02T03:02:37.000Z,57.40
2017-06-02T03:05:05.373Z,57.30
2017-06-02T03:07:32.969Z,57.30
2017-06-02T03:10:01.317Z,57.60
2017-06-02T03:12:29.678Z,57.30
2017-06-02T03:14:58.774Z,57.20
2017-06-02T03:17:27.125Z,57.70
2017-06-02T03:19:55.481Z,57.60
2017-06-02T03:22:23.861Z,58.00
2017-06-02T03:24:52.212Z,58.00
2017-06-02T03:27:20.567Z,58.00
2017-06-02T03:29:48.971Z,58.20
2017-06-02T03:32:17.300Z,58.40
2017-06-02T03:34:45.652Z,58.80
2017-06-02T03:37:13.997Z,58.40
2017-06-02T03:39:42.368Z,58.70
2017-06-02T03:42:10.713Z,58.20
2017-06-02T03:44:39.069Z,58.40
2017-06-02T03:47:07.412Z,58.40
2017-06-02T03:50:30.080Z,59.20
2017-06-02T03:53:10.389Z,59.10
2017-06-02T03:55:42.606Z,60.30
2017-06-02T03:58:10.948Z,58.80
2017-06-02T04:00:38.570Z,58.80
2017-06-02T04:03:06.908Z,58.50
2017-06-02T04:05:36.009Z,58.40
2017-06-02T04:08:04.361Z,57.60
2017-06-02T04:10:32.739Z,58.30
2017-06-02T04:13:01.179Z,57.90
2017-06-02T04:15:29.600Z,57.30
2017-06-02T04:17:57.944Z,56.70
2017-06-02T04:20:26.304Z,56.80
2017-06-02T04:22:54.745Z,56.70
2017-06-02T04:25:23.120Z,56.20
2017-06-02T04:27:51.394Z,56.20
2017-06-02T04:30:19.010Z,55.40
2017-06-02T04:32:47.386Z,56.00
2017-06-02T04:35:15.860Z,55.40
2017-06-02T04:37:43.451Z,54.70
2017-06-02T04:40:11.800Z,54.60
2017-06-02T04:42:40.991Z,54.40
2017-06-02T04:45:09.326Z,53.60
2017-06-02T04:47:37.697Z,54.70
2017-06-02T04:50:06.164Z,54.20
2017-06-02T04:52:34.581Z,54.40
2017-06-02T04:55:02.933Z,54.60
2017-06-02T04:57:30.565Z,54.50
2017-06-02T04:59:58.144Z,55.00
2017-06-02T05:02:26.518Z,54.70
2017-06-02T05:04:54.896Z,54.10
2017-06-02T05:07:23.233Z,54.50
2017-06-02T05:09:51.625Z,55.90
2017-06-02T05:12:20.063Z,54.40
2017-06-02T05:14:48.442Z,54.80
2017-06-02T05:17:16.022Z,54.80
2017-06-02T05:19:44.384Z,52.30
2017-06-02T05:22:12.737Z,52.20
2017-06-02T05:24:41.098Z,51.70
2017-06-02T05:27:09.471Z,51.90
2017-06-02T05:29:38.318Z,52.20
2017-06-02T05:32:06.701Z,52.30
2017-06-02T05:34:35.109Z,52.00
2017-06-02T05:37:03.492Z,52.70
2017-06-02T05:39:31.866Z,52.30
2017-06-02T05:42:00.298Z,52.40
2017-06-02T05:44:28.638Z,52.00
2017-06-02T05:46:57.029Z,52.90
2017-06-02T05:49:25.395Z,51.50
2017-06-02T05:51:53.789Z,51.20
2017-06-02T05:54:21.481Z,51.10
2017-06-02T05:56:50.476Z,49.50
2017-06-02T05:59:18.894Z,50.70
2017-06-02T06:01:47.273Z,51.20
2017-06-02T06:04:16.088Z,52.00
2017-06-02T06:06:44.435Z,55.00
2017-06-02T06:09:15.545Z,50.20
2017-06-02T06:11:43.923Z,54.40
2017-06-02T06:14:12.352Z,53.90
2017-06-02T06:16:40.706Z,50.60
2017-06-02T06:19:09.060Z,50.30
2017-06-02T06:21:37.396Z,51.10
2017-06-02T06:24:05.767Z,51.70
2017-06-02T06:26:34.152Z,50.70
2017-06-02T06:29:02.488Z,50.80
2017-06-02T06:31:30.858Z,49.90
2017-06-02T06:33:59.211Z,49.70
2017-06-02T06:36:27.577Z,50.00
2017-06-02T06:38:57.822Z,50.30
2017-06-02T06:41:26.195Z,50.20
2017-06-02T06:43:54.544Z,49.80
2017-06-02T06:46:22.904Z,49.00
2017-06-02T06:48:51.248Z,49.70
2017-06-02T06:51:19.602Z,48.60
2017-06-02T06:53:48.007Z,48.90
2017-06-02T06:56:17.064Z,48.30
2017-06-02T06:58:45.412Z,47.40
2017-06-02T07:01:13.761Z,47.80
2017-06-02T07:03:42.805Z,47.00
2017-06-02T07:06:11.161Z,48.20
2017-06-02T07:08:40.753Z,47.40
2017-06-02T07:11:09.096Z,47.60
2017-06-02T07:13:37.470Z,47.40
2017-06-02T07:16:05.814Z,46.50
2017-06-02T07:18:34.188Z,46.90
2017-06-02T07:21:02.549Z,46.50
2017-06-02T07:23:30.919Z,47.70
2017-06-02T07:25:59.325Z,46.70
2017-06-02T07:28:28.549Z,47.00
2017-06-02T07:30:56.941Z,47.60
2017-06-02T07:33:25.303Z,47.60
2017-06-02T07:35:53.677Z,47.40
2017-06-02T07:38:21.261Z,46.90
2017-06-02T07:40:49.695Z,45.40
2017-06-02T07:43:18.052Z,47.30
2017-06-02T07:45:46.412Z,46.00
2017-06-02T07:48:15.480Z,48.90
2017-06-02T07:50:43.848Z,49.00
2017-06-02T07:53:12.188Z,45.90
2017-06-02T07:55:40.546Z,44.20
2017-06-02T07:58:09.017Z,46.70
2017-06-02T08:00:37.427Z,44.40
2017-06-02T08:03:05.774Z,44.70
2017-06-02T08:05:34.705Z,44.60
2017-06-02T08:08:03.112Z,46.00
2017-06-02T08:10:34.580Z,43.30
2017-06-02T08:13:09.097Z,44.10
2017-06-02T08:15:37.485Z,44.20
2017-06-02T08:18:05.870Z,46.50
2017-06-02T08:20:34.214Z,44.30
2017-06-02T08:23:02.615Z,45.20
2017-06-02T08:25:31.992Z,43.60
2017-06-02T08:28:00.356Z,45.20
2017-06-02T08:30:28.736Z,42.70
2017-06-02T08:32:57.124Z,43.40
2017-06-02T08:35:25.433Z,44.40
2017-06-02T08:37:54.307Z,47.50
2017-06-02T08:40:22.655Z,44.90
2017-06-02T08:42:51.024Z,42.00
2017-06-02T08:45:19.582Z,42.10
2017-06-02T08:47:47.919Z,43.10
2017-06-02T08:50:16.265Z,43.40
2017-06-02T08:52:44.620Z,42.30
2017-06-02T08:55:13.528Z,42.20
2017-06-02T08:57:41.863Z,39.90
2017-06-02T09:00:10.200Z,40.40
2017-06-02T09:02:38.633Z,41.60
2017-06-02T09:05:07.725Z,40.90
2017-06-02T09:07:36.048Z,41.60
2017-06-02T09:10:04.391Z,41.50
2017-06-02T09:12:32.720Z,42.20
2017-06-02T09:15:01.123Z,42.00
2017-06-02T09:17:29.476Z,42.60
2017-06-02T09:19:57.827Z,40.90
2017-06-02T09:22:26.157Z,41.00
2017-06-02T09:24:54.495Z,42.20
2017-06-02T09:27:22.822Z,42.30
2017-06-02T09:29:51.155Z,42.20
2017-06-02T09:32:19.479Z,40.50
2017-06-02T09:34:47.849Z,40.20
2017-06-02T09:37:16.204Z,40.00
2017-06-02T09:39:44.528Z,40.50
2017-06-02T09:42:12.886Z,40.30
2017-06-02T09:44:41.224Z,43.10
2017-06-02T09:47:17.750Z,40.20
2017-06-02T09:49:46.110Z,41.00
2017-06-02T09:54:47.101Z,40.10
2017-06-02T09:57:14.685Z,40.00
2017-06-02T09:59:52.971Z,41.70
2017-06-02T10:02:28.187Z,40.00
2017-06-02T10:04:56.858Z,40.70
2017-06-02T10:07:24.479Z,40.80
2017-06-02T10:09:52.858Z,40.30
2017-06-02T10:12:21.206Z,40.50
2017-06-02T10:14:49.532Z,41.70
2017-06-02T10:17:17.904Z,41.80
2017-06-02T10:19:46.244Z,41.00
2017-06-02T10:22:14.591Z,39.90
2017-06-02T10:24:42.960Z,39.80
2017-06-02T10:27:11.320Z,39.70
2017-06-02T10:29:39.744Z,38.20
2017-06-02T10:32:08.159Z,38.10
2017-06-02T10:34:35.969Z,38.10
2017-06-02T10:37:04.332Z,39.90
2017-06-02T10:39:31.978Z,39.90
2017-06-02T10:42:00.350Z,40.50
2017-06-02T10:44:28.717Z,40.60
2017-06-02T10:46:57.065Z,41.00
2017-06-02T10:49:24.672Z,41.00
2017-06-02T10:51:53.042Z,42.30
2017-06-02T10:54:21.445Z,40.60
2017-06-02T10:56:49.879Z,41.90
2017-06-02T10:59:18.229Z,40.70
2017-06-02T11:01:46.609Z,40.10
2017-06-02T11:04:15.013Z,43.50
2017-06-02T11:06:43.412Z,40.60
2017-06-02T11:09:11.760Z,41.10
2017-06-02T11:11:40.124Z,40.70
2017-06-02T11:14:08.616Z,43.40
2017-06-02T11:16:36.981Z,40.70
2017-06-02T11:19:05.403Z,39.40
2017-06-02T11:21:33.798Z,40.70
2017-06-02T11:24:02.161Z,40.60
2017-06-02T11:26:30.560Z,40.60
2017-06-02T11:28:58.914Z,40.50
2017-06-02T11:31:27.261Z,41.10
2017-06-02T11:33:55.609Z,41.80
2017-06-02T11:36:23.268Z,41.80
2017-06-02T11:38:51.740Z,43.00
2017-06-02T11:41:20.121Z,42.40
2017-06-02T11:43:48.474Z,42.00
2017-06-02T11:46:16.816Z,42.70
2017-06-02T11:48:45.210Z,41.70
2017-06-02T11:51:13.572Z,41.90
2017-06-02T11:53:42.002Z,42.30
2017-06-02T11:56:10.349Z,42.50
2017-06-02T11:58:38.713Z,43.10
2017-06-02T12:01:10.197Z,42.60
2017-06-02T12:03:38.590Z,42.20
2017-06-02T12:06:06.953Z,42.10
2017-06-02T12:08:35.348Z,42.50
2017-06-02T12:11:03.680Z,41.20
2017-06-02T12:13:32.104Z,43.70
2017-06-02T12:16:00.461Z,42.90
2017-06-02T12:18:28.888Z,41.40
2017-06-02T12:20:57.350Z,42.10
2017-06-02T12:23:27.206Z,41.50
2017-06-02T12:25:55.609Z,41.30
2017-06-02T12:28:23.990Z,40.90
2017-06-02T12:30:55.887Z,41.20
2017-06-02T12:33:24.274Z,41.10
2017-06-02T12:35:52.637Z,41.80
2017-06-02T12:38:24.301Z,42.50
2017-06-02T12:40:52.790Z,41.00
2017-06-02T12:43:21.166Z,40.10
2017-06-02T12:45:49.568Z,42.40
2017-06-02T12:48:17.929Z,41.00
2017-06-02T12:50:46.341Z,44.70
2017-06-02T12:53:16.796Z,41.70
2017-06-02T12:55:45.213Z,41.40
2017-06-02T12:58:20.755Z,41.60
2017-06-02T13:00:51.218Z,41.60
2017-06-02T13:03:41.675Z,40.90
2017-06-02T13:06:12.122Z,41.50
2017-06-02T13:08:57.547Z,40.20
2017-06-02T13:11:26.092Z,41.70
2017-06-02T13:13:54.516Z,40.80
2017-06-02T13:16:22.999Z,42.10
2017-06-02T13:18:52.359Z,39.90
2017-06-02T13:21:30.848Z,39.40
2017-06-02T13:23:59.329Z,38.10
2017-06-02T13:26:27.818Z,37.30
2017-06-02T13:28:56.964Z,38.80
2017-06-02T13:31:25.384Z,38.10
2017-06-02T13:33:53.819Z,38.70
2017-06-02T13:36:22.177Z,38.60
2017-06-02T13:38:50.580Z,39.60
2017-06-02T13:41:18.916Z,38.60
2017-06-02T13:43:47.271Z,39.10
2017-06-02T13:46:15.613Z,37.70
2017-06-02T13:48:44.040Z,38.30
2017-06-02T13:51:12.445Z,37.70
2017-06-02T13:53:40.975Z,38.30
2017-06-02T13:56:10.495Z,38.50
2017-06-02T13:58:38.897Z,38.30
2017-06-02T14:01:07.725Z,37.60
2017-06-02T14:03:36.153Z,37.80
2017-06-02T14:06:05.867Z,41.50
2017-06-02T14:08:34.249Z,38.00
2017-06-02T14:11:15.970Z,38.20
2017-06-02T14:13:44.341Z,38.00
2017-06-02T14:16:12.681Z,38.20
2017-06-02T14:18:41.040Z,35.80
2017-06-02T14:21:09.406Z,36.00
2017-06-02T14:23:37.771Z,37.30
2017-06-02T14:26:06.115Z,37.80
2017-06-02T14:28:34.439Z,36.90
2017-06-02T14:31:06.344Z,36.40
2017-06-02T14:33:34.822Z,38.00
2017-06-02T14:36:03.176Z,38.00
2017-06-02T14:38:32.485Z,37.40
2017-06-02T14:41:00.840Z,37.50
2017-06-02T14:43:29.641Z,37.90
2017-06-02T14:45:58.005Z,37.70
2017-06-02T14:48:26.350Z,42.80
2017-06-02T14:50:54.732Z,39.80
2017-06-02T14:53:23.090Z,44.00
2017-06-02T14:55:51.475Z,41.60
2017-06-02T14:58:19.881Z,40.20
2017-06-02T15:00:48.254Z,41.30
2017-06-02T15:03:16.685Z,42.30
2017-06-02T15:05:45.000Z,42.90
2017-06-02T15:08:14.333Z,43.60
2017-06-02T15:10:42.706Z,43.90
2017-06-02T15:13:11.080Z,44.40
2017-06-02T15:15:39.450Z,44.70
2017-06-02T15:18:07.843Z,45.00
2017-06-02T15:20:35.447Z,45.00
2017-06-02T15:23:03.853Z,45.50
2017-06-02T15:25:32.228Z,45.90
2017-06-02T15:28:00.701Z,46.50
2017-06-02T15:30:29.088Z,46.60
2017-06-02T15:32:57.433Z,47.10
2017-06-02T15:38:27.412Z,47.80
2017-06-02T15:41:03.000Z,48.80
2017-06-02T15:43:31.438Z,49.50
2017-06-02T15:45:59.798Z,50.20
2017-06-02T15:48:28.167Z,50.00
2017-06-02T15:50:56.626Z,50.60
2017-06-02T15:53:28.630Z,51.00
2017-06-02T15:55:57.109Z,51.30
2017-06-02T15:58:25.477Z,51.70
2017-06-02T16:00:53.133Z,51.70
2017-06-02T16:03:21.504Z,50.40
2017-06-02T16:05:49.917Z,51.40
2017-06-02T16:08:18.296Z,53.30
2017-06-02T16:10:45.951Z,53.30
2017-06-02T16:13:14.320Z,53.20
2017-06-02T16:15:42.694Z,53.50
2017-06-02T16:18:11.157Z,51.50
2017-06-02T16:20:39.624Z,51.20
2017-06-02T16:23:08.111Z,51.20
2017-06-02T16:25:36.562Z,50.90
2017-06-02T16:28:04.985Z,54.20
2017-06-02T16:30:32.731Z,54.00
2017-06-02T16:33:01.129Z,53.20
2017-06-02T16:35:29.579Z,53.00
2017-06-02T16:37:58.033Z,51.00
2017-06-02T16:40:26.464Z,51.10
2017-06-02T16:42:54.892Z,52.70
2017-06-02T16:45:23.252Z,52.20
2017-06-02T16:47:51.636Z,51.70
2017-06-02T16:50:19.985Z,51.90
2017-06-02T16:52:48.376Z,51.20
2017-06-02T16:55:16.766Z,51.60
2017-06-02T16:57:45.125Z,51.90
2017-06-02T17:00:13.712Z,51.90
2017-06-02T17:02:42.186Z,52.60
2017-06-02T17:05:10.806Z,52.90
2017-06-02T17:07:39.208Z,53.50
2017-06-02T17:10:07.688Z,53.10
2017-06-02T17:12:36.110Z,53.20
2017-06-02T17:15:04.565Z,53.50
2017-06-02T17:17:32.168Z,53.50
2017-06-02T17:20:00.537Z,53.80
2017-06-02T17:22:28.993Z,53.80
2017-06-02T17:24:57.477Z,54.50
2017-06-02T17:27:25.850Z,53.30
2017-06-02T17:29:54.256Z,53.80
2017-06-02T17:32:22.802Z,53.00
2017-06-02T17:46:07.291Z,53.00
2017-06-02T17:48:47.453Z,54.00
2017-06-02T17:51:27.993Z,54.60
2017-06-02T17:54:11.953Z,54.60
2017-06-02T17:56:56.797Z,54.50
2017-06-02T18:02:33.524Z,54.70
2017-06-02T18:05:08.496Z,54.50
2017-06-02T18:07:55.841Z,55.70
2017-06-02T18:10:39.881Z,54.90
2017-06-02T18:13:17.997Z,55.00
2017-06-02T18:18:38.685Z,55.20
2017-06-02T18:21:23.559Z,56.50
2017-06-02T18:24:12.321Z,57.80
2017-06-02T18:26:56.624Z,56.20
2017-06-02T18:29:40.524Z,56.10
2017-06-02T18:32:32.038Z,56.40
2017-06-02T18:35:18.697Z,56.60
2017-06-02T18:38:02.961Z,57.00
2017-06-02T18:40:47.759Z,56.80
2017-06-02T18:46:18.585Z,57.00
2017-06-02T18:49:03.067Z,57.10
2017-06-02T18:51:49.842Z,56.60
2017-06-02T18:54:32.085Z,56.40
2017-06-02T19:00:16.302Z,57.70
2017-06-02T19:08:38.446Z,56.80
2017-06-02T19:11:30.892Z,57.10
2017-06-02T19:20:00.905Z,57.20
2017-06-02T19:22:42.887Z,58.20
2017-06-02T19:25:27.713Z,58.60
2017-06-02T19:28:14.180Z,58.10
2017-06-02T19:30:58.993Z,58.00
2017-06-02T19:36:38.185Z,59.70
2017-06-02T19:41:57.997Z,59.00
2017-06-02T19:44:32.031Z,58.70
2017-06-02T19:47:03.444Z,58.80
2017-06-02T19:49:39.032Z,59.50
2017-06-02T19:52:10.362Z,60.90
2017-06-02T19:54:40.312Z,61.20
2017-06-02T19:57:14.012Z,62.00
2017-06-02T19:59:45.423Z,62.20
2017-06-02T20:02:19.350Z,62.60
2017-06-02T20:04:53.165Z,63.60
2017-06-02T20:07:27.219Z,63.20
2017-06-02T20:10:01.141Z,64.00
2017-06-02T20:12:35.281Z,64.60
2017-06-02T20:15:06.651Z,64.70
2017-06-02T20:17:38.780Z,65.60
2017-06-02T20:20:12.109Z,65.60
2017-06-02T20:22:46.240Z,66.70
2017-06-02T20:25:20.355Z,66.60
2017-06-02T20:27:59.711Z,66.80
2017-06-02T20:30:33.162Z,67.30
2017-06-02T20:33:04.505Z,67.10
2017-06-02T20:35:38.169Z,66.80
2017-06-02T20:38:12.236Z,66.90
2017-06-02T20:40:46.044Z,67.50
2017-06-02T20:43:19.898Z,67.20
2017-06-02T20:45:51.144Z,67.50
2017-06-02T20:48:25.152Z,68.30
2017-06-02T20:50:57.003Z,68.40
2017-06-02T20:53:28.465Z,68.10
2017-06-02T20:56:07.267Z,68.30
2017-06-02T20:58:41.101Z,66.90
2017-06-02T21:01:15.668Z,66.50
2017-06-02T21:03:48.969Z,66.90
2017-06-02T21:06:22.996Z,66.40
2017-06-02T21:08:56.417Z,65.20
2017-06-02T21:11:53.621Z,65.90
2017-06-02T21:14:27.280Z,65.60
2017-06-02T21:16:58.401Z,66.00
2017-06-02T21:19:32.260Z,66.30
2017-06-02T21:22:03.579Z,66.90
2017-06-02T21:24:36.951Z,66.90
2017-06-02T21:27:12.592Z,66.60
2017-06-02T21:29:50.025Z,66.70
2017-06-02T21:32:21.237Z,67.10
2017-06-02T21:34:54.905Z,67.40
2017-06-02T21:37:29.032Z,66.70
2017-06-02T21:40:03.149Z,67.20
2017-06-02T21:42:37.075Z,66.60
2017-06-02T21:45:11.216Z,67.60
2017-06-02T21:47:45.235Z,66.90
2017-06-02T21:50:19.183Z,67.30
2017-06-02T21:52:53.120Z,67.80
2017-06-02T21:55:24.244Z,68.10
2017-06-02T21:57:57.736Z,68.10
2017-06-02T22:00:31.881Z,67.40
2017-06-02T22:03:05.813Z,67.90
2017-06-02T22:05:39.052Z,68.50
2017-06-02T22:08:12.893Z,68.50
2017-06-02T22:10:43.037Z,67.50
2017-06-02T22:13:16.849Z,67.40
2017-06-02T22:15:50.689Z,68.60
2017-06-02T22:18:22.119Z,67.80
2017-06-02T22:20:55.570Z,67.90
2017-06-02T22:23:29.705Z,68.00
2017-06-02T22:26:07.256Z,68.30
2017-06-02T22:28:40.781Z,68.30
2017-06-02T22:31:12.119Z,67.70
2017-06-02T22:33:56.548Z,67.70
2017-06-02T22:36:37.359Z,68.40
2017-06-02T22:39:11.520Z,69.50
2017-06-02T22:41:56.221Z,69.30
2017-06-02T22:44:29.721Z,68.20
2017-06-02T22:47:03.782Z,69.00
2017-06-02T22:49:36.018Z,68.20
2017-06-02T22:52:09.652Z,68.80
2017-06-02T22:54:43.576Z,69.70
2017-06-02T22:57:17.656Z,69.90
2017-06-02T22:59:51.608Z,70.30
2017-06-02T23:02:25.600Z,70.30
2017-06-02T23:04:59.546Z,70.50
2017-06-02T23:07:31.028Z,70.00
2017-06-02T23:10:05.788Z,70.20
2017-06-02T23:12:37.136Z,70.30
2017-06-02T23:15:08.136Z,70.10
2017-06-02T23:17:42.088Z,71.10
2017-06-02T23:20:13.501Z,70.80
2017-06-02T23:22:47.123Z,71.40
2017-06-02T23:25:18.413Z,70.80
2017-06-02T23:27:52.026Z,71.60
2017-06-02T23:30:23.344Z,71.20
2017-06-02T23:32:55.609Z,72.20
2017-06-02T23:35:29.264Z,72.10
2017-06-02T23:38:03.454Z,71.90
2017-06-02T23:40:40.607Z,72.50
2017-06-02T23:43:14.473Z,72.60
2017-06-02T23:45:45.756Z,72.10
2017-06-02T23:48:19.533Z,72.80
2017-06-02T23:50:50.756Z,72.90
2017-06-02T23:53:21.744Z,72.30
2017-06-02T23:55:55.417Z,72.30
2017-06-02T23:58:26.003Z,71.70
